createdAt,value
2023-01-07T00:00:54.330Z,98.79
2023-01-07T00:01:54.323Z,98.69
2023-01-07T00:02:54.374Z,98.79
2023-01-07T00:03:54.421Z,98.79
2023-01-07T00:04:54.668Z,98.79
2023-01-07T00:05:54.278Z,98.69
2023-01-07T00:06:54.698Z,98.69
2023-01-07T00:07:54.281Z,98.79
2023-01-07T00:08:54.260Z,98.79
2023-01-07T00:09:54.233Z,98.69
2023-01-07T00:10:54.229Z,98.59
2023-01-07T00:11:54.233Z,98.49
2023-01-07T00:12:54.232Z,98.49
2023-01-07T00:13:54.199Z,98.59
2023-01-07T00:14:54.191Z,98.49
2023-01-07T00:15:54.246Z,98.59
2023-01-07T00:16:54.186Z,98.69
2023-01-07T00:17:54.161Z,98.69
2023-01-07T00:18:54.166Z,98.79
2023-01-07T00:19:54.135Z,98.79
2023-01-07T00:20:54.125Z,98.69
2023-01-07T00:21:54.482Z,98.69
2023-01-07T00:22:54.108Z,98.79
2023-01-07T00:23:54.096Z,98.90
2023-01-07T00:24:54.092Z,98.90
2023-01-07T00:25:54.078Z,98.90
2023-01-07T00:26:54.074Z,98.90
2023-01-07T00:27:54.056Z,98.79
2023-01-07T00:28:54.047Z,98.79
2023-01-07T00:29:54.050Z,98.69
2023-01-07T00:30:54.038Z,98.79
2023-01-07T00:31:54.013Z,98.75
2023-01-07T00:32:54.373Z,98.90
2023-01-07T00:33:53.991Z,99.00
2023-01-07T00:34:53.980Z,98.79
2023-01-07T00:35:53.969Z,98.54
2023-01-07T00:36:53.963Z,98.65
2023-01-07T00:37:53.969Z,98.65
2023-01-07T00:38:53.949Z,98.79
2023-01-07T00:39:53.933Z,98.90
2023-01-07T00:40:53.925Z,98.75
2023-01-07T00:41:54.345Z,98.90
2023-01-07T00:42:53.922Z,98.90
2023-01-07T00:43:53.887Z,98.90
2023-01-07T00:44:53.885Z,99.00
2023-01-07T00:45:53.868Z,98.90
2023-01-07T00:46:54.286Z,98.90
2023-01-07T00:47:53.864Z,98.79
2023-01-07T00:48:53.847Z,98.79
2023-01-07T00:49:53.825Z,98.69
2023-01-07T00:50:53.821Z,98.69
2023-01-07T00:51:53.814Z,98.54
2023-01-07T00:52:53.942Z,98.44
2023-01-07T00:53:53.788Z,98.44
2023-01-07T00:54:53.793Z,98.38
2023-01-07T00:55:53.771Z,98.24
2023-01-07T00:56:53.795Z,98.03
2023-01-07T00:57:54.131Z,98.13
2023-01-07T00:58:53.758Z,98.13
2023-01-07T00:59:53.728Z,97.82
2023-01-07T01:00:53.910Z,97.62
2023-01-07T01:01:53.730Z,97.62
2023-01-07T01:02:53.819Z,97.62
2023-01-07T01:03:53.689Z,97.82
2023-01-07T01:04:53.684Z,97.72
2023-01-07T01:05:53.680Z,97.82
2023-01-07T01:06:53.679Z,97.82
2023-01-07T01:07:53.644Z,97.92
2023-01-07T01:08:53.637Z,97.82
2023-01-07T01:09:53.628Z,97.72
2023-01-07T01:10:53.618Z,97.82
2023-01-07T01:11:53.612Z,97.72
2023-01-07T01:12:53.598Z,97.72
2023-01-07T01:13:53.582Z,97.82
2023-01-07T01:14:53.575Z,97.72
2023-01-07T01:15:53.597Z,97.72
2023-01-07T01:16:53.877Z,97.82
2023-01-07T01:17:53.547Z,97.72
2023-01-07T01:18:53.546Z,97.72
2023-01-07T01:19:53.524Z,97.62
2023-01-07T01:20:53.520Z,97.52
2023-01-07T01:21:54.005Z,97.52
2023-01-07T01:22:53.493Z,97.72
2023-01-07T01:23:53.476Z,97.82
2023-01-07T01:24:53.487Z,98.03
2023-01-07T01:25:53.461Z,97.82
2023-01-07T01:26:53.459Z,97.62
2023-01-07T01:27:53.443Z,97.72
2023-01-07T01:28:53.436Z,97.62
2023-01-07T01:29:53.421Z,97.52
2023-01-07T01:30:53.417Z,97.52
2023-01-07T01:31:53.589Z,97.52
2023-01-07T01:32:53.395Z,97.41
2023-01-07T01:33:53.413Z,97.20
2023-01-07T01:34:53.383Z,97.41
2023-01-07T01:35:53.360Z,97.41
2023-01-07T01:36:53.357Z,97.52
2023-01-07T01:37:53.347Z,97.52
2023-01-07T01:38:53.350Z,97.41
2023-01-07T01:39:53.326Z,97.41
2023-01-07T01:40:53.323Z,97.62
2023-01-07T01:41:53.315Z,97.62
2023-01-07T01:42:53.297Z,97.62
2023-01-07T01:43:53.276Z,97.52
2023-01-07T01:44:53.291Z,97.62
2023-01-07T01:45:53.256Z,97.62
2023-01-07T01:46:53.288Z,97.62
2023-01-07T01:47:53.238Z,97.62
2023-01-07T01:48:53.232Z,97.72
2023-01-07T01:49:53.238Z,97.62
2023-01-07T01:50:53.210Z,97.62
2023-01-07T01:51:53.198Z,97.62
2023-01-07T01:52:53.195Z,97.52
2023-01-07T01:53:53.176Z,97.62
2023-01-07T01:54:53.172Z,97.52
2023-01-07T01:55:53.157Z,97.62
2023-01-07T01:56:53.159Z,97.41
2023-01-07T01:57:53.153Z,97.52
2023-01-07T01:58:53.141Z,97.41
2023-01-07T01:59:53.246Z,97.31
2023-01-07T02:00:53.194Z,97.31
2023-01-07T02:01:53.230Z,97.36
2023-01-07T02:02:53.102Z,97.45
2023-01-07T02:03:53.079Z,97.66
2023-01-07T02:04:53.867Z,97.87
2023-01-07T02:05:53.073Z,97.87
2023-01-07T02:06:53.047Z,97.87
2023-01-07T02:07:53.036Z,97.87
2023-01-07T02:08:53.036Z,97.87
2023-01-07T02:09:53.044Z,97.87
2023-01-07T02:10:53.015Z,97.97
2023-01-07T02:11:52.997Z,97.97
2023-01-07T02:12:52.991Z,98.07
2023-01-07T02:13:52.975Z,97.97
2023-01-07T02:14:52.973Z,97.97
2023-01-07T02:15:52.992Z,97.97
2023-01-07T02:16:52.948Z,97.97
2023-01-07T02:17:52.938Z,97.97
2023-01-07T02:18:52.933Z,97.97
2023-01-07T02:19:52.912Z,97.97
2023-01-07T02:20:52.941Z,97.87
2023-01-07T02:21:52.898Z,97.87
2023-01-07T02:22:52.888Z,97.87
2023-01-07T02:23:52.882Z,97.87
2023-01-07T02:24:52.872Z,97.87
2023-01-07T02:25:52.868Z,97.87
2023-01-07T02:26:52.851Z,97.87
2023-01-07T02:27:52.832Z,97.87
2023-01-07T02:28:52.829Z,97.77
2023-01-07T02:29:52.813Z,97.87
2023-01-07T02:30:52.809Z,97.87
2023-01-07T02:31:53.208Z,97.87
2023-01-07T02:32:52.793Z,97.87
2023-01-07T02:33:52.772Z,97.77
2023-01-07T02:34:52.767Z,97.66
2023-01-07T02:35:52.747Z,97.66
2023-01-07T02:36:52.754Z,97.66
2023-01-07T02:37:52.734Z,97.66
2023-01-07T02:38:52.741Z,97.66
2023-01-07T02:39:52.718Z,97.66
2023-01-07T02:40:52.706Z,97.77
2023-01-07T02:41:52.713Z,97.66
2023-01-07T02:42:52.686Z,97.66
2023-01-07T02:43:52.683Z,97.66
2023-01-07T02:44:52.674Z,97.66
2023-01-07T02:45:52.704Z,97.66
2023-01-07T02:46:52.651Z,97.66
2023-01-07T02:47:52.629Z,97.66
2023-01-07T02:48:53.091Z,97.66
2023-01-07T02:49:52.603Z,97.56
2023-01-07T02:50:52.630Z,97.56
2023-01-07T02:51:53.450Z,97.45
2023-01-07T02:52:52.579Z,97.45
2023-01-07T02:53:52.567Z,97.56
2023-01-07T02:54:52.560Z,97.66
2023-01-07T02:55:52.550Z,97.66
2023-01-07T02:56:52.541Z,97.66
2023-01-07T02:57:52.531Z,97.66
2023-01-07T02:58:52.517Z,97.66
2023-01-07T02:59:52.503Z,97.56
2023-01-07T03:00:52.705Z,97.56
2023-01-07T03:01:53.401Z,97.56
2023-01-07T03:02:52.479Z,97.56
2023-01-07T03:03:53.019Z,97.56
2023-01-07T03:04:52.465Z,97.45
2023-01-07T03:05:52.451Z,97.56
2023-01-07T03:06:52.441Z,97.45
2023-01-07T03:07:52.425Z,97.45
2023-01-07T03:08:52.440Z,97.36
2023-01-07T03:09:52.402Z,97.25
2023-01-07T03:10:52.408Z,97.25
2023-01-07T03:11:52.394Z,97.25
2023-01-07T03:12:52.375Z,97.25
2023-01-07T03:13:52.741Z,97.25
2023-01-07T03:14:52.352Z,97.15
2023-01-07T03:15:52.371Z,97.05
2023-01-07T03:16:52.409Z,97.15
2023-01-07T03:17:52.321Z,97.05
2023-01-07T03:18:52.316Z,97.15
2023-01-07T03:19:52.302Z,97.05
2023-01-07T03:20:52.292Z,97.15
2023-01-07T03:21:52.287Z,97.05
2023-01-07T03:22:52.272Z,97.15
2023-01-07T03:23:52.265Z,97.15
2023-01-07T03:24:52.248Z,97.15
2023-01-07T03:25:52.244Z,97.15
2023-01-07T03:26:52.250Z,97.15
2023-01-07T03:27:52.226Z,97.15
2023-01-07T03:28:52.207Z,97.15
2023-01-07T03:29:52.204Z,97.15
2023-01-07T03:30:52.185Z,97.15
2023-01-07T03:31:52.246Z,97.15
2023-01-07T03:32:52.165Z,97.15
2023-01-07T03:33:52.562Z,97.15
2023-01-07T03:34:52.155Z,97.15
2023-01-07T03:35:52.164Z,97.05
2023-01-07T03:36:52.215Z,97.15
2023-01-07T03:37:52.166Z,97.05
2023-01-07T03:38:52.119Z,96.94
2023-01-07T03:39:52.107Z,96.84
2023-01-07T03:40:52.093Z,96.94
2023-01-07T03:41:52.074Z,96.84
2023-01-07T03:42:52.068Z,96.84
2023-01-07T03:43:52.065Z,96.90
2023-01-07T03:44:52.045Z,96.84
2023-01-07T03:45:52.135Z,96.84
2023-01-07T03:46:52.023Z,96.73
2023-01-07T03:47:52.028Z,96.84
2023-01-07T03:48:52.009Z,96.80
2023-01-07T03:49:52.000Z,96.69
2023-01-07T03:50:51.984Z,96.94
2023-01-07T03:51:51.984Z,96.84
2023-01-07T03:52:51.980Z,96.84
2023-01-07T03:53:52.337Z,96.84
2023-01-07T03:54:51.939Z,96.84
2023-01-07T03:55:51.941Z,96.69
2023-01-07T03:56:51.923Z,96.73
2023-01-07T03:57:51.909Z,96.59
2023-01-07T03:58:51.921Z,96.59
2023-01-07T03:59:51.897Z,96.73
2023-01-07T04:00:51.995Z,96.69
2023-01-07T04:01:52.012Z,96.64
2023-01-07T04:02:51.857Z,96.69
2023-01-07T04:03:51.879Z,96.73
2023-01-07T04:04:51.848Z,96.73
2023-01-07T04:05:51.833Z,96.69
2023-01-07T04:06:51.816Z,96.73
2023-01-07T04:07:51.817Z,96.73
2023-01-07T04:08:51.801Z,96.73
2023-01-07T04:09:52.208Z,96.84
2023-01-07T04:10:51.781Z,96.84
2023-01-07T04:11:51.770Z,96.69
2023-01-07T04:12:51.760Z,96.80
2023-01-07T04:13:51.772Z,96.94
2023-01-07T04:14:51.743Z,96.94
2023-01-07T04:15:51.731Z,96.90
2023-01-07T04:16:51.771Z,97.05
2023-01-07T04:17:51.727Z,97.05
2023-01-07T04:18:51.700Z,97.05
2023-01-07T04:19:51.690Z,97.05
2023-01-07T04:20:52.098Z,97.05
2023-01-07T04:21:51.673Z,96.94
2023-01-07T04:22:51.649Z,96.94
2023-01-07T04:23:51.650Z,96.94
2023-01-07T04:24:51.634Z,96.84
2023-01-07T04:25:51.629Z,96.84
2023-01-07T04:26:51.616Z,96.84
2023-01-07T04:27:51.606Z,96.73
2023-01-07T04:28:51.592Z,96.73
2023-01-07T04:29:52.019Z,96.73
2023-01-07T04:30:51.698Z,96.69
2023-01-07T04:31:51.562Z,96.73
2023-01-07T04:32:51.554Z,96.48
2023-01-07T04:33:51.566Z,96.53
2023-01-07T04:34:51.541Z,96.53
2023-01-07T04:35:51.533Z,96.48
2023-01-07T04:36:51.521Z,96.39
2023-01-07T04:37:51.507Z,96.43
2023-01-07T04:38:51.912Z,96.39
2023-01-07T04:39:51.870Z,96.39
2023-01-07T04:40:51.467Z,96.39
2023-01-07T04:41:51.465Z,96.48
2023-01-07T04:42:51.454Z,96.53
2023-01-07T04:43:51.447Z,96.64
2023-01-07T04:44:51.432Z,96.53
2023-01-07T04:45:51.539Z,96.64
2023-01-07T04:46:51.412Z,96.48
2023-01-07T04:47:51.404Z,96.53
2023-01-07T04:48:51.388Z,96.53
2023-01-07T04:49:51.735Z,96.39
2023-01-07T04:50:51.369Z,96.53
2023-01-07T04:51:51.389Z,96.39
2023-01-07T04:52:51.371Z,96.53
2023-01-07T04:53:51.342Z,96.53
2023-01-07T04:54:51.336Z,96.53
2023-01-07T04:55:51.319Z,96.73
2023-01-07T04:56:51.307Z,96.59
2023-01-07T04:57:51.797Z,96.53
2023-01-07T04:58:51.287Z,96.43
2023-01-07T04:59:51.297Z,96.53
2023-01-07T05:00:51.667Z,96.53
2023-01-07T05:01:51.346Z,96.53
2023-01-07T05:02:51.251Z,96.28
2023-01-07T05:03:51.247Z,96.43
2023-01-07T05:04:51.327Z,96.43
2023-01-07T05:05:51.220Z,96.43
2023-01-07T05:06:51.447Z,96.43
2023-01-07T05:07:51.207Z,96.28
2023-01-07T05:08:51.184Z,96.43
2023-01-07T05:09:51.179Z,96.48
2023-01-07T05:10:51.190Z,96.53
2023-01-07T05:11:51.160Z,96.43
2023-01-07T05:12:51.580Z,96.43
2023-01-07T05:13:51.141Z,96.33
2023-01-07T05:14:51.131Z,96.18
2023-01-07T05:15:51.118Z,96.33
2023-01-07T05:16:51.194Z,96.33
2023-01-07T05:17:51.101Z,96.28
2023-01-07T05:18:51.079Z,96.28
2023-01-07T05:19:51.080Z,96.28
2023-01-07T05:20:51.090Z,96.43
2023-01-07T05:21:51.057Z,96.33
2023-01-07T05:22:51.045Z,96.33
2023-01-07T05:23:51.038Z,96.43
2023-01-07T05:24:51.046Z,96.33
2023-01-07T05:25:51.012Z,96.33
2023-01-07T05:26:51.005Z,96.33
2023-01-07T05:27:50.993Z,96.43
2023-01-07T05:28:50.983Z,96.22
2023-01-07T05:29:50.992Z,96.22
2023-01-07T05:30:50.984Z,96.22
2023-01-07T05:31:51.323Z,96.33
2023-01-07T05:32:50.942Z,96.33
2023-01-07T05:33:50.937Z,96.33
2023-01-07T05:34:50.919Z,96.33
2023-01-07T05:35:50.917Z,96.22
2023-01-07T05:36:50.957Z,96.12
2023-01-07T05:37:50.903Z,96.33
2023-01-07T05:38:50.890Z,96.43
2023-01-07T05:39:51.266Z,96.43
2023-01-07T05:40:50.873Z,96.22
2023-01-07T05:41:50.861Z,96.02
2023-01-07T05:42:50.895Z,95.92
2023-01-07T05:43:50.934Z,95.92
2023-01-07T05:44:50.837Z,95.71
2023-01-07T05:45:50.847Z,95.71
2023-01-07T05:46:50.801Z,95.81
2023-01-07T05:47:51.211Z,95.81
2023-01-07T05:48:50.777Z,95.92
2023-01-07T05:49:50.770Z,96.02
2023-01-07T05:50:50.763Z,95.87
2023-01-07T05:51:51.177Z,95.71
2023-01-07T05:52:50.738Z,95.81
2023-01-07T05:53:51.114Z,95.71
2023-01-07T05:54:50.714Z,95.50
2023-01-07T05:55:50.712Z,95.46
2023-01-07T05:56:50.695Z,95.71
2023-01-07T05:57:50.692Z,95.71
2023-01-07T05:58:50.688Z,95.71
2023-01-07T05:59:50.671Z,95.61
2023-01-07T06:00:50.704Z,95.61
2023-01-07T06:01:51.036Z,95.56
2023-01-07T06:02:50.643Z,95.56
2023-01-07T06:03:50.684Z,95.36
2023-01-07T06:04:50.641Z,95.40
2023-01-07T06:05:50.611Z,95.50
2023-01-07T06:06:50.603Z,95.40
2023-01-07T06:07:50.589Z,95.56
2023-01-07T06:08:50.572Z,95.46
2023-01-07T06:09:50.572Z,95.40
2023-01-07T06:10:50.593Z,95.36
2023-01-07T06:11:50.556Z,95.15
2023-01-07T06:12:50.534Z,95.15
2023-01-07T06:13:50.536Z,95.15
2023-01-07T06:14:50.522Z,95.05
2023-01-07T06:15:50.554Z,94.95
2023-01-07T06:16:50.494Z,95.05
2023-01-07T06:17:50.495Z,94.95
2023-01-07T06:18:50.471Z,94.74
2023-01-07T06:19:50.540Z,94.84
2023-01-07T06:20:50.504Z,94.74
2023-01-07T06:21:50.447Z,94.74
2023-01-07T06:22:50.431Z,94.84
2023-01-07T06:23:50.451Z,94.64
2023-01-07T06:24:50.417Z,94.64
2023-01-07T06:25:50.404Z,94.54
2023-01-07T06:26:50.398Z,94.64
2023-01-07T06:27:50.392Z,94.54
2023-01-07T06:28:50.372Z,94.43
2023-01-07T06:29:50.372Z,94.54
2023-01-07T06:30:50.424Z,94.54
2023-01-07T06:31:50.349Z,94.74
2023-01-07T06:32:50.336Z,94.43
2023-01-07T06:33:50.338Z,94.33
2023-01-07T06:34:50.314Z,94.23
2023-01-07T06:35:50.310Z,94.33
2023-01-07T06:36:50.551Z,94.54
2023-01-07T06:37:50.297Z,94.43
2023-01-07T06:38:50.273Z,94.43
2023-01-07T06:39:50.270Z,94.33
2023-01-07T06:40:50.250Z,94.33
2023-01-07T06:41:50.266Z,94.43
2023-01-07T06:42:50.241Z,94.54
2023-01-07T06:43:50.261Z,94.43
2023-01-07T06:44:50.215Z,94.33
2023-01-07T06:45:50.216Z,94.33
2023-01-07T06:46:50.197Z,94.33
2023-01-07T06:47:50.188Z,94.43
2023-01-07T06:48:50.121Z,94.43
2023-01-07T06:49:50.171Z,94.43
2023-01-07T06:50:50.128Z,94.23
2023-01-07T06:51:50.091Z,93.82
2023-01-07T06:52:50.078Z,94.02
2023-01-07T06:53:50.603Z,93.92
2023-01-07T06:54:50.072Z,93.92
2023-01-07T06:55:50.051Z,94.02
2023-01-07T06:56:50.087Z,93.92
2023-01-07T06:57:50.051Z,94.12
2023-01-07T06:58:50.038Z,94.02
2023-01-07T06:59:50.010Z,94.12
2023-01-07T07:00:50.046Z,94.02
2023-01-07T07:01:50.080Z,93.82
2023-01-07T07:02:50.051Z,93.82
2023-01-07T07:03:50.000Z,93.82
2023-01-07T07:04:49.962Z,93.82
2023-01-07T07:05:49.953Z,94.02
2023-01-07T07:06:50.096Z,94.02
2023-01-07T07:07:49.929Z,93.82
2023-01-07T07:08:50.331Z,94.02
2023-01-07T07:09:49.915Z,93.82
2023-01-07T07:10:49.898Z,93.82
2023-01-07T07:11:50.474Z,94.02
2023-01-07T07:12:49.875Z,93.82
2023-01-07T07:13:49.880Z,93.51
2023-01-07T07:14:49.860Z,93.61
2023-01-07T07:15:49.980Z,93.51
2023-01-07T07:16:49.843Z,93.61
2023-01-07T07:17:50.309Z,93.51
2023-01-07T07:18:49.810Z,93.51
2023-01-07T07:19:50.231Z,93.51
2023-01-07T07:20:49.799Z,93.40
2023-01-07T07:21:49.793Z,93.30
2023-01-07T07:22:49.774Z,93.40
2023-01-07T07:23:49.774Z,93.51
2023-01-07T07:24:49.751Z,93.40
2023-01-07T07:25:49.746Z,93.51
2023-01-07T07:26:49.746Z,93.30
2023-01-07T07:27:49.728Z,93.20
2023-01-07T07:28:49.714Z,93.30
2023-01-07T07:29:49.718Z,93.20
2023-01-07T07:30:49.709Z,93.20
2023-01-07T07:31:49.686Z,93.16
2023-01-07T07:32:49.674Z,92.85
2023-01-07T07:33:49.684Z,93.05
2023-01-07T07:34:49.651Z,93.20
2023-01-07T07:35:49.647Z,92.99
2023-01-07T07:36:49.652Z,93.10
2023-01-07T07:37:49.621Z,92.99
2023-01-07T07:38:49.618Z,92.89
2023-01-07T07:39:50.038Z,92.54
2023-01-07T07:40:49.611Z,92.58
2023-01-07T07:41:49.579Z,92.64
2023-01-07T07:43:10.324Z,92.74
2023-01-07T07:43:49.568Z,92.44
2023-01-07T07:44:49.587Z,92.33
2023-01-07T07:45:49.543Z,92.33
2023-01-07T07:46:49.643Z,92.54
2023-01-07T07:47:49.520Z,92.13
2023-01-07T07:48:49.528Z,92.33
2023-01-07T07:49:49.498Z,92.44
2023-01-07T07:50:49.516Z,92.13
2023-01-07T07:51:49.476Z,92.13
2023-01-07T07:52:49.477Z,92.33
2023-01-07T07:53:49.455Z,91.93
2023-01-07T07:54:49.864Z,91.93
2023-01-07T07:55:49.438Z,91.93
2023-01-07T07:56:49.853Z,91.61
2023-01-07T07:57:49.415Z,91.72
2023-01-07T07:58:49.414Z,91.41
2023-01-07T07:59:49.399Z,91.51
2023-01-07T08:00:49.391Z,91.41
2023-01-07T08:01:49.520Z,91.31
2023-01-07T08:02:49.418Z,91.51
2023-01-07T08:03:49.359Z,91.31
2023-01-07T08:04:49.356Z,91.20
2023-01-07T08:05:49.334Z,91.41
2023-01-07T08:06:49.336Z,91.41
2023-01-07T08:07:49.321Z,91.51
2023-01-07T08:08:49.316Z,91.31
2023-01-07T08:09:49.293Z,91.51
2023-01-07T08:10:49.289Z,91.72
2023-01-07T08:11:49.277Z,91.51
2023-01-07T08:12:49.261Z,91.20
2023-01-07T08:13:49.272Z,91.31
2023-01-07T08:14:49.250Z,91.41
2023-01-07T08:15:49.284Z,91.61
2023-01-07T08:16:49.249Z,91.72
2023-01-07T08:17:49.221Z,91.51
2023-01-07T08:18:49.215Z,91.72
2023-01-07T08:19:49.195Z,91.61
2023-01-07T08:20:49.194Z,91.82
2023-01-07T08:21:49.186Z,91.61
2023-01-07T08:22:49.183Z,91.93
2023-01-07T08:23:49.158Z,91.82
2023-01-07T08:24:49.156Z,91.72
2023-01-07T08:25:49.129Z,91.72
2023-01-07T08:26:49.124Z,91.61
2023-01-07T08:27:49.110Z,91.82
2023-01-07T08:28:49.104Z,91.93
2023-01-07T08:29:49.507Z,91.82
2023-01-07T08:30:49.084Z,92.13
2023-01-07T08:31:49.069Z,91.93
2023-01-07T08:32:49.071Z,91.93
2023-01-07T08:33:49.070Z,92.23
2023-01-07T08:34:49.062Z,92.13
2023-01-07T08:35:49.032Z,92.13
2023-01-07T08:36:49.020Z,92.03
2023-01-07T08:37:49.030Z,91.72
2023-01-07T08:38:49.010Z,91.41
2023-01-07T08:39:48.983Z,91.31
2023-01-07T08:40:48.982Z,91.61
2023-01-07T08:41:48.999Z,91.61
2023-01-07T08:42:48.959Z,91.72
2023-01-07T08:43:48.956Z,91.51
2023-01-07T08:44:48.955Z,91.41
2023-01-07T08:45:48.928Z,91.51
2023-01-07T08:46:48.942Z,91.41
2023-01-07T08:47:48.907Z,91.27
2023-01-07T08:48:48.903Z,91.41
2023-01-07T08:49:48.891Z,91.61
2023-01-07T08:50:48.880Z,91.51
2023-01-07T08:51:48.869Z,91.16
2023-01-07T08:52:48.863Z,90.59
2023-01-07T08:53:49.261Z,90.75
2023-01-07T08:54:48.850Z,90.65
2023-01-07T08:55:48.826Z,90.85
2023-01-07T08:56:48.819Z,90.55
2023-01-07T08:57:48.805Z,90.14
2023-01-07T08:58:48.808Z,90.14
2023-01-07T08:59:48.783Z,90.14
2023-01-07T09:00:48.829Z,90.14
2023-01-07T09:01:49.341Z,90.14
2023-01-07T09:02:48.801Z,90.28
2023-01-07T09:03:48.745Z,90.55
2023-01-07T09:04:48.740Z,90.44
2023-01-07T09:05:48.731Z,90.65
2023-01-07T09:06:48.749Z,90.75
2023-01-07T09:07:48.705Z,90.75
2023-01-07T09:08:48.698Z,90.55
2023-01-07T09:09:48.683Z,90.48
2023-01-07T09:10:48.679Z,90.59
2023-01-07T09:11:48.953Z,90.65
2023-01-07T09:12:48.663Z,90.59
2023-01-07T09:13:48.639Z,90.18
2023-01-07T09:14:48.644Z,90.28
2023-01-07T09:15:48.630Z,90.28
2023-01-07T09:16:49.107Z,90.55
2023-01-07T09:17:48.609Z,90.44
2023-01-07T09:18:48.603Z,90.44
2023-01-07T09:19:48.589Z,90.14
2023-01-07T09:20:48.587Z,90.34
2023-01-07T09:21:48.976Z,90.24
2023-01-07T09:22:48.561Z,90.55
2023-01-07T09:23:48.543Z,90.55
2023-01-07T09:24:48.540Z,90.44
2023-01-07T09:25:48.540Z,90.34
2023-01-07T09:26:48.520Z,90.14
2023-01-07T09:27:48.511Z,90.14
2023-01-07T09:28:48.512Z,90.55
2023-01-07T09:29:48.481Z,90.24
2023-01-07T09:30:48.478Z,90.14
2023-01-07T09:31:48.525Z,90.14
2023-01-07T09:32:48.463Z,89.83
2023-01-07T09:33:48.445Z,89.72
2023-01-07T09:34:48.433Z,90.24
2023-01-07T09:35:48.427Z,89.93
2023-01-07T09:36:48.414Z,89.62
2023-01-07T09:37:48.825Z,89.52
2023-01-07T09:38:48.400Z,89.89
2023-01-07T09:39:48.381Z,89.37
2023-01-07T09:40:48.791Z,88.96
2023-01-07T09:41:48.372Z,89.48
2023-01-07T09:42:48.370Z,88.56
2023-01-07T09:44:00.685Z,88.92
2023-01-07T09:44:48.344Z,89.03
2023-01-07T09:45:48.367Z,88.51
2023-01-07T09:46:48.351Z,87.59
2023-01-07T09:47:48.301Z,87.70
2023-01-07T09:48:48.301Z,88.00
2023-01-07T09:49:48.288Z,87.90
2023-01-07T09:50:48.709Z,88.06
2023-01-07T09:51:48.264Z,88.06
2023-01-07T09:52:48.279Z,87.45
2023-01-07T09:53:48.243Z,87.14
2023-01-07T09:54:48.247Z,87.76
2023-01-07T09:56:11.498Z,87.41
2023-01-07T09:56:48.224Z,86.48
2023-01-07T09:57:48.209Z,86.90
2023-01-07T09:58:48.205Z,85.97
2023-01-07T09:59:48.201Z,85.97
2023-01-07T10:00:48.183Z,85.87
2023-01-07T10:01:48.196Z,86.55
2023-01-07T10:02:48.226Z,85.83
2023-01-07T10:03:48.170Z,86.34
2023-01-07T10:04:48.159Z,85.52
2023-01-07T10:05:48.134Z,85.93
2023-01-07T10:06:48.516Z,85.93
2023-01-07T10:07:48.109Z,86.14
2023-01-07T10:08:48.116Z,86.24
2023-01-07T10:09:48.102Z,85.52
2023-01-07T10:10:48.091Z,85.72
2023-01-07T10:11:48.076Z,86.14
2023-01-07T10:12:48.065Z,86.44
2023-01-07T10:13:48.062Z,86.24
2023-01-07T10:14:48.048Z,85.83
2023-01-07T10:15:48.037Z,84.70
2023-01-07T10:16:48.078Z,84.50
2023-01-07T10:17:48.028Z,85.01
2023-01-07T10:18:48.019Z,83.06
2023-01-07T10:19:48.769Z,84.50
2023-01-07T10:20:48.003Z,83.58
2023-01-07T10:21:47.982Z,83.37
2023-01-07T10:22:47.975Z,82.24
2023-01-07T10:23:47.969Z,81.12
2023-01-07T10:24:48.349Z,80.71
2023-01-07T10:25:47.951Z,81.63
2023-01-07T10:26:47.941Z,81.84
2023-01-07T10:27:47.932Z,82.55
2023-01-07T10:28:47.924Z,81.73
2023-01-07T10:29:47.911Z,81.01
2023-01-07T10:30:47.911Z,81.52
2023-01-07T10:31:47.988Z,81.12
2023-01-07T10:32:47.888Z,80.91
2023-01-07T10:33:47.879Z,80.51
2023-01-07T10:34:47.867Z,81.12
2023-01-07T10:35:47.866Z,80.51
2023-01-07T10:36:47.862Z,81.22
2023-01-07T10:37:47.847Z,81.84
2023-01-07T10:38:47.839Z,81.63
2023-01-07T10:39:47.821Z,81.84
2023-01-07T10:40:47.819Z,81.01
2023-01-07T10:41:47.828Z,81.73
2023-01-07T10:42:47.797Z,81.73
2023-01-07T10:43:47.786Z,81.63
2023-01-07T10:44:47.821Z,81.73
2023-01-07T10:45:47.801Z,82.24
2023-01-07T10:46:47.764Z,81.01
2023-01-07T10:47:47.749Z,81.01
2023-01-07T10:48:47.745Z,81.52
2023-01-07T10:49:47.730Z,81.84
2023-01-07T10:50:47.725Z,81.32
2023-01-07T10:51:47.707Z,81.22
2023-01-07T10:52:47.713Z,80.91
2023-01-07T10:53:47.728Z,80.51
2023-01-07T10:54:47.688Z,80.81
2023-01-07T10:55:47.676Z,81.73
2023-01-07T10:56:47.680Z,81.01
2023-01-07T10:57:48.005Z,80.09
2023-01-07T10:58:48.083Z,80.19
2023-01-07T10:59:47.632Z,80.81
2023-01-07T11:00:47.687Z,80.40
2023-01-07T11:01:47.718Z,80.30
2023-01-07T11:02:47.644Z,79.68
2023-01-07T11:03:47.623Z,80.51
2023-01-07T11:04:47.594Z,81.01
2023-01-07T11:05:47.578Z,80.09
2023-01-07T11:06:47.579Z,79.96
2023-01-07T11:07:47.562Z,79.27
2023-01-07T11:08:47.564Z,78.35
2023-01-07T11:09:47.539Z,79.48
2023-01-07T11:10:47.537Z,78.45
2023-01-07T11:11:47.524Z,78.76
2023-01-07T11:12:47.528Z,78.76
2023-01-07T11:13:47.500Z,78.86
2023-01-07T11:14:47.501Z,78.35
2023-01-07T11:15:47.499Z,78.97
2023-01-07T11:16:47.564Z,78.66
2023-01-07T11:17:47.475Z,79.48
2023-01-07T11:18:47.463Z,79.89
2023-01-07T11:19:48.348Z,79.58
2023-01-07T11:20:47.456Z,79.34
2023-01-07T11:21:47.449Z,79.64
2023-01-07T11:22:47.423Z,79.13
2023-01-07T11:23:47.421Z,79.64
2023-01-07T11:24:47.409Z,79.96
2023-01-07T11:25:47.394Z,79.24
2023-01-07T11:26:47.401Z,78.01
2023-01-07T11:27:47.376Z,78.63
2023-01-07T11:28:47.371Z,79.13
2023-01-07T11:29:47.363Z,79.03
2023-01-07T11:30:47.349Z,79.03
2023-01-07T11:31:47.399Z,79.03
2023-01-07T11:32:47.339Z,78.63
2023-01-07T11:34:01.903Z,78.63
2023-01-07T11:34:47.320Z,77.70
2023-01-07T11:35:47.297Z,78.45
2023-01-07T11:36:47.548Z,77.84
2023-01-07T11:37:47.279Z,78.97
2023-01-07T11:38:47.283Z,78.76
2023-01-07T11:39:47.261Z,78.35
2023-01-07T11:40:47.333Z,78.45
2023-01-07T11:41:47.246Z,78.35
2023-01-07T11:42:47.274Z,77.73
2023-01-07T11:43:47.269Z,78.25
2023-01-07T11:44:47.225Z,78.25
2023-01-07T11:45:47.299Z,78.76
2023-01-07T11:46:47.267Z,79.07
2023-01-07T11:47:47.212Z,78.66
2023-01-07T11:48:47.194Z,78.25
2023-01-07T11:49:47.878Z,78.86
2023-01-07T11:50:47.164Z,78.59
2023-01-07T11:51:49.488Z,78.80
2023-01-07T11:52:47.143Z,78.80
2023-01-07T11:53:47.135Z,79.52
2023-01-07T11:54:47.133Z,79.52
2023-01-07T11:55:47.126Z,79.62
2023-01-07T11:56:47.111Z,80.54
2023-01-07T11:57:47.108Z,80.33
2023-01-07T11:58:47.091Z,80.54
2023-01-07T11:59:47.143Z,80.54
2023-01-07T12:00:47.113Z,80.64
2023-01-07T12:01:47.075Z,80.03
2023-01-07T12:02:47.133Z,79.96
2023-01-07T12:03:47.215Z,80.58
2023-01-07T12:04:47.035Z,80.17
2023-01-07T12:05:47.052Z,80.07
2023-01-07T12:06:47.056Z,80.37
2023-01-07T12:07:47.007Z,80.37
2023-01-07T12:08:46.995Z,80.58
2023-01-07T12:09:47.477Z,80.88
2023-01-07T12:10:46.984Z,80.68
2023-01-07T12:11:47.292Z,80.88
2023-01-07T12:12:46.955Z,80.68
2023-01-07T12:13:46.958Z,80.68
2023-01-07T12:14:46.941Z,80.68
2023-01-07T12:15:46.938Z,80.78
2023-01-07T12:16:47.034Z,80.41
2023-01-07T12:17:47.020Z,79.18
2023-01-07T12:18:46.902Z,79.08
2023-01-07T12:19:47.726Z,79.08
2023-01-07T12:20:46.885Z,78.77
2023-01-07T12:21:46.892Z,78.67
2023-01-07T12:22:46.878Z,78.56
2023-01-07T12:23:47.491Z,79.59
2023-01-07T12:24:46.844Z,79.08
2023-01-07T12:25:46.838Z,79.28
2023-01-07T12:26:46.824Z,78.97
2023-01-07T12:27:46.854Z,79.80
2023-01-07T12:28:46.952Z,79.80
2023-01-07T12:29:46.804Z,79.49
2023-01-07T12:30:46.787Z,79.38
2023-01-07T12:31:46.898Z,79.08
2023-01-07T12:32:46.765Z,79.08
2023-01-07T12:33:47.005Z,79.59
2023-01-07T12:34:46.760Z,79.49
2023-01-07T12:35:46.738Z,79.90
2023-01-07T12:36:46.723Z,79.69
2023-01-07T12:37:46.735Z,79.69
2023-01-07T12:38:46.706Z,79.38
2023-01-07T12:39:46.725Z,78.46
2023-01-07T12:40:46.723Z,79.08
2023-01-07T12:41:46.694Z,78.56
2023-01-07T12:42:46.722Z,78.97
2023-01-07T12:43:46.663Z,78.87
2023-01-07T12:44:46.709Z,79.18
2023-01-07T12:45:46.684Z,79.08
2023-01-07T12:46:46.635Z,78.56
2023-01-07T12:47:47.085Z,78.46
2023-01-07T12:48:46.628Z,78.77
2023-01-07T12:49:46.611Z,79.38
2023-01-07T12:50:46.623Z,79.08
2023-01-07T12:51:46.602Z,78.77
2023-01-07T12:52:46.586Z,77.64